MV Sea Wolf — WCW6738 — position and weather

sailwx.info

Track history (hours):
 
Tides and Currents Weather Stations Pressure Air Temp Water Temp Dewpoint Dewpoint Depression Visibility Wind Speed Wind Dir Waves Ship Positions

MV Sea Wolf

Owner: SEA WOLF MARINE TOWING & TRANSPORTATION, Bayonne, NJ. More information available from US FCC via Universal Licensing System and Coast Guard Vessel Documentation Center.

Last reported at 2017-Nov-18 02:30 UTC. Time now 2017-Nov-18 02:56 UTC.
Position N 40°41' W 074°05'.

Length 66 m; draft 10 m.

MMSI: 367002350.

Date/timePositionNaut miles runAvg speedWind from/ knotsBaromVisibWave heightAir tempDewpointWater temp
2017-Nov-18 02:30N 40°41' W 074°05'0 0.0
2017-Nov-18 02:00N 40°41' W 074°05'0 0.0
2017-Nov-18 01:30N 40°41' W 074°05'0 0.0
2017-Nov-18 01:00N 40°41' W 074°05'0 0.0
2017-Nov-18 00:30N 40°41' W 074°05'0 0.0
2017-Nov-18 00:00N 40°41' W 074°05'0 0.0
2017-Nov-17 23:30N 40°41' W 074°05'0 0.0
2017-Nov-17 23:00N 40°41' W 074°05'0 0.0
2017-Nov-17 22:30N 40°41' W 074°05'0 0.0
2017-Nov-17 22:00N 40°41' W 074°05'0 0.0
2017-Nov-17 21:30N 40°41' W 074°05'0 0.0
2017-Nov-17 21:00N 40°41' W 074°05'0 0.0
2017-Nov-17 20:30N 40°41' W 074°05'0 0.0
2017-Nov-17 20:00N 40°41' W 074°05'0 0.0
2017-Nov-17 19:30N 40°41' W 074°05'0 0.0
2017-Nov-17 19:00N 40°41' W 074°05'2 3.3
2017-Nov-17 18:31N 40°40' W 074°04'4 7.6
2017-Nov-17 18:00N 40°38' W 074°09'0 0.0
2017-Nov-17 17:30N 40°38' W 074°09'0 0.2
2017-Nov-17 17:00N 40°38' W 074°09'0 0.1
2017-Nov-17 16:30N 40°38' W 074°09'0 0.1
2017-Nov-17 16:00N 40°38' W 074°09'0 0.1
2017-Nov-17 15:30N 40°38' W 074°09'0 0.0
2017-Nov-17 15:00N 40°38' W 074°09'0 0.0
2017-Nov-17 14:29N 40°38' W 074°09'0 0.2
2017-Nov-17 14:00N 40°38' W 074°09'0 0.1
2017-Nov-17 13:30N 40°38' W 074°09'0 0.0
2017-Nov-17 13:00N 40°38' W 074°09'0 0.0
2017-Nov-17 12:30N 40°38' W 074°09'3 5.1
2017-Nov-17 12:00N 40°39' W 074°06'2 5.0
2017-Nov-17 11:30N 40°41' W 074°05'0 0.0
2017-Nov-17 11:00N 40°41' W 074°05'0 0.0
2017-Nov-17 10:30N 40°41' W 074°05'0 0.0
2017-Nov-17 10:00N 40°41' W 074°05'0 0.0
2017-Nov-17 09:30N 40°41' W 074°05'0 0.0
2017-Nov-17 09:00N 40°41' W 074°05'0 0.0
2017-Nov-17 08:30N 40°41' W 074°05'0 0.0
2017-Nov-17 08:00N 40°41' W 074°05'0 0.0
2017-Nov-17 07:30N 40°41' W 074°05'0 0.0
2017-Nov-17 07:00N 40°41' W 074°05'0 0.0
2017-Nov-17 06:30N 40°41' W 074°05'0 0.0
2017-Nov-17 06:00N 40°41' W 074°05'0 0.0
2017-Nov-17 05:30N 40°41' W 074°05'0 0.0
2017-Nov-17 05:00N 40°41' W 074°05'0 0.0
2017-Nov-17 04:30N 40°41' W 074°05'0 0.0
2017-Nov-17 04:00N 40°41' W 074°05'0 0.0
2017-Nov-17 03:30N 40°41' W 074°05'0 0.0
2017-Nov-17 03:00N 40°41' W 074°05'0 0.0
2017-Nov-17 02:31N 40°41' W 074°05'0 0.0
2017-Nov-17 02:00N 40°41' W 074°05'0 0.0
2017-Nov-17 01:30N 40°41' W 074°05'0 0.0
2017-Nov-17 01:00N 40°41' W 074°05'0 0.0
2017-Nov-17 00:30N 40°41' W 074°05'0 0.0
2017-Nov-17 00:00N 40°41' W 074°05'0 0.0
2017-Nov-16 23:30N 40°41' W 074°05'0 0.0
2017-Nov-16 23:00N 40°41' W 074°05'0 0.0
2017-Nov-16 22:30N 40°41' W 074°05'0 0.0
2017-Nov-16 22:00N 40°41' W 074°05'0 0.0
2017-Nov-16 21:30N 40°41' W 074°05'2 3.3
2017-Nov-16 21:00N 40°41' W 074°03'2 3.7
2017-Nov-16 20:30N 40°40' W 074°01'2 3.1
2017-Nov-16 20:00N 40°41' W 074°01'3 6.1
2017-Nov-16 19:30N 40°44' W 073°58'1 2.4
2017-Nov-16 19:00N 40°44' W 073°57'1 1.8
2017-Nov-16 18:30N 40°44' W 073°58'2 3.9
2017-Nov-16 18:00N 40°42' W 073°59'2 4.5
2017-Nov-16 17:30N 40°41' W 074°02'2 4.0
2017-Nov-16 17:00N 40°41' W 074°04'0 0.3
2017-Nov-16 16:31N 40°41' W 074°05'0 0.0
2017-Nov-16 16:00N 40°41' W 074°05'0 0.0
2017-Nov-16 15:30N 40°41' W 074°05'0 0.0
2017-Nov-16 15:00N 40°41' W 074°05'0 0.0
2017-Nov-16 14:30N 40°41' W 074°05'0 0.0
2017-Nov-16 14:00N 40°41' W 074°05'0 0.0
2017-Nov-16 13:30N 40°41' W 074°05'0 0.0
2017-Nov-16 13:00N 40°41' W 074°05'0 0.3
2017-Nov-16 12:30N 40°41' W 074°04'0 0.3
2017-Nov-16 12:00N 40°41' W 074°05'0 0.0
2017-Nov-16 11:30N 40°41' W 074°05'0 0.0
2017-Nov-16 11:00N 40°41' W 074°05'0 0.0
2017-Nov-16 10:31N 40°41' W 074°05'0 0.0
2017-Nov-16 10:00N 40°41' W 074°05'0 0.0
2017-Nov-16 09:31N 40°41' W 074°05'0 0.0
2017-Nov-16 09:00N 40°41' W 074°05'0 0.0
2017-Nov-16 08:30N 40°41' W 074°05'0 0.0
2017-Nov-16 08:00N 40°41' W 074°05'0 0.0
2017-Nov-16 07:30N 40°41' W 074°05'0 0.0
2017-Nov-16 07:00N 40°41' W 074°05'0 0.0
2017-Nov-16 06:31N 40°41' W 074°05'0 0.0
2017-Nov-16 06:00N 40°41' W 074°05'0 0.0
2017-Nov-16 05:30N 40°41' W 074°05'0 0.0
2017-Nov-16 05:00N 40°41' W 074°05'0 0.0
2017-Nov-16 04:31N 40°41' W 074°05'0 0.0
2017-Nov-16 04:00N 40°41' W 074°05'1 2.6
2017-Nov-16 03:30N 40°40' W 074°04'4 7.3
2017-Nov-16 03:00N 40°39' W 074°08'3 6.0
2017-Nov-16 02:30N 40°38' W 074°12'2 3.8
2017-Nov-16 01:55N 40°35' W 074°12'2 4.4
2017-Nov-16 01:30N 40°37' W 074°12'3 5.3
2017-Nov-16 01:00N 40°39' W 074°09'3 5.7
2017-Nov-16 00:31N 40°39' W 074°06'2 4.7
2017-Nov-16 00:01N 40°41' W 074°04'0 0.5
2017-Nov-15 23:30N 40°41' W 074°05'0 0.0
2017-Nov-15 23:00N 40°41' W 074°05'0 0.0
2017-Nov-15 22:30N 40°41' W 074°05'0 0.0
2017-Nov-15 22:00N 40°41' W 074°05'0 0.0
2017-Nov-15 21:30N 40°41' W 074°05'0 0.0
2017-Nov-15 21:00N 40°41' W 074°05'0 0.0
2017-Nov-15 20:30N 40°41' W 074°05'0 0.0
2017-Nov-15 20:01N 40°41' W 074°05'0 0.0
2017-Nov-15 19:30N 40°41' W 074°05'0 0.0
2017-Nov-15 19:00N 40°41' W 074°05'0 0.0
2017-Nov-15 18:30N 40°41' W 074°05'0 0.0
2017-Nov-15 18:01N 40°41' W 074°05'0 0.0
2017-Nov-15 17:30N 40°41' W 074°05'0 0.0
2017-Nov-15 17:01N 40°41' W 074°05'0 0.0
2017-Nov-15 16:30N 40°41' W 074°05'0 0.0
2017-Nov-15 16:00N 40°41' W 074°05'0 0.0
2017-Nov-15 15:30N 40°41' W 074°05'0 0.0
2017-Nov-15 15:00N 40°41' W 074°05'0 0.0
2017-Nov-15 14:31N 40°41' W 074°05'0 0.0
2017-Nov-15 14:00N 40°41' W 074°05'0 0.0
2017-Nov-15 13:30N 40°41' W 074°05'0 0.0
2017-Nov-15 13:00N 40°41' W 074°05'0 0.0
2017-Nov-15 12:30N 40°41' W 074°05'0 0.0
2017-Nov-15 12:00N 40°41' W 074°05'0 0.0
2017-Nov-15 11:30N 40°41' W 074°05'0 0.0
2017-Nov-15 11:00N 40°41' W 074°05'0 0.0
2017-Nov-15 10:30N 40°41' W 074°05'0 0.0
2017-Nov-15 10:00N 40°41' W 074°05'0 0.0
2017-Nov-15 09:30N 40°41' W 074°05'0 0.0
2017-Nov-15 09:00N 40°41' W 074°05'0 0.0
2017-Nov-15 08:30N 40°41' W 074°05'0 0.0
2017-Nov-15 08:00N 40°41' W 074°05'0 0.0
2017-Nov-15 07:30N 40°41' W 074°05'0 0.0
2017-Nov-15 07:00N 40°41' W 074°05'0 0.0
2017-Nov-15 06:30N 40°41' W 074°05'0 0.0
2017-Nov-15 06:00N 40°41' W 074°05'0 0.0
2017-Nov-15 05:30N 40°41' W 074°05'0 0.0
2017-Nov-15 05:00N 40°41' W 074°05'0 0.0
2017-Nov-15 04:30N 40°41' W 074°05'0 0.0
2017-Nov-15 04:00N 40°41' W 074°05'0 0.0
2017-Nov-15 03:30N 40°41' W 074°05'0 0.0
2017-Nov-15 03:00N 40°41' W 074°05'0 0.0
2017-Nov-15 02:30N 40°41' W 074°05'0 0.0
2017-Nov-15 02:00N 40°41' W 074°05'0 0.0
2017-Nov-15 01:30N 40°41' W 074°05'0 0.0
2017-Nov-15 00:59N 40°41' W 074°05'0 0.0
2017-Nov-15 00:30N 40°41' W 074°05'0 0.0
2017-Nov-15 00:00N 40°41' W 074°05'0 0.0
2017-Nov-14 23:30N 40°41' W 074°05'0 0.0
2017-Nov-14 23:00N 40°41' W 074°05'0 0.0
2017-Nov-14 22:30N 40°41' W 074°05'0 0.0
2017-Nov-14 22:00N 40°41' W 074°05'0 0.0
2017-Nov-14 21:30N 40°41' W 074°05'0 0.0
2017-Nov-14 21:00N 40°41' W 074°05'0 0.0
2017-Nov-14 20:30N 40°41' W 074°05'0 0.0
2017-Nov-14 20:00N 40°41' W 074°05'0 0.0
2017-Nov-14 19:30N 40°41' W 074°05'0 0.0
2017-Nov-14 19:00N 40°41' W 074°05'0 0.0
2017-Nov-14 18:30N 40°41' W 074°05'0 0.0
2017-Nov-14 18:00N 40°41' W 074°05'0 0.0
2017-Nov-14 17:30N 40°41' W 074°05'0 0.0
2017-Nov-14 17:00N 40°41' W 074°05'0 0.0
2017-Nov-14 16:30N 40°41' W 074°05'0 0.0
2017-Nov-14 16:00N 40°41' W 074°05'0 0.0
2017-Nov-14 15:30N 40°41' W 074°05'0 0.0
2017-Nov-14 15:00N 40°41' W 074°05'0 0.0
2017-Nov-14 14:30N 40°41' W 074°05'0 0.0
2017-Nov-14 14:00N 40°41' W 074°05'0 0.0
2017-Nov-14 13:30N 40°41' W 074°05'0 0.0
2017-Nov-14 13:00N 40°41' W 074°05'0 0.0
2017-Nov-14 12:30N 40°41' W 074°05'0 0.0
2017-Nov-14 12:01N 40°41' W 074°05'0 0.0
2017-Nov-14 11:30N 40°41' W 074°05'0 0.0
2017-Nov-14 11:00N 40°41' W 074°05'0 0.0
2017-Nov-14 10:30N 40°41' W 074°05'0 0.0
2017-Nov-14 10:00N 40°41' W 074°05'0 0.0
2017-Nov-14 09:30N 40°41' W 074°05'0 0.0
2017-Nov-14 09:00N 40°41' W 074°05'0 0.0
2017-Nov-14 08:30N 40°41' W 074°05'0 0.0
2017-Nov-14 08:00N 40°41' W 074°05'0 0.0
2017-Nov-14 07:30N 40°41' W 074°05'0 0.0
2017-Nov-14 07:00N 40°41' W 074°05'0 0.0
2017-Nov-14 06:30N 40°41' W 074°05'0 0.0
2017-Nov-14 06:00N 40°41' W 074°05'0 0.0
2017-Nov-14 05:30N 40°41' W 074°05'0 0.0
2017-Nov-14 05:00N 40°41' W 074°05'0 0.0
2017-Nov-14 04:30N 40°41' W 074°05'0 0.0
2017-Nov-14 04:00N 40°41' W 074°05'0 0.0
2017-Nov-14 03:30N 40°41' W 074°05'0 0.0
2017-Nov-14 03:00N 40°41' W 074°05'0 0.0
2017-Nov-14 02:30N 40°41' W 074°05'0 0.0
2017-Nov-14 02:00N 40°41' W 074°05'0 0.0
2017-Nov-14 01:30N 40°41' W 074°05'0 0.0
2017-Nov-14 01:00N 40°41' W 074°05'0 0.0
2017-Nov-14 00:30N 40°41' W 074°05'0 0.0
2017-Nov-14 00:00N 40°41' W 074°05'0 0.0
2017-Nov-13 23:30N 40°41' W 074°05'0 0.0
2017-Nov-13 23:00N 40°41' W 074°05'0 0.0
2017-Nov-13 22:30N 40°41' W 074°05'0 0.0
2017-Nov-13 22:00N 40°41' W 074°05'0 0.0
2017-Nov-13 02:01N 40°41' W 074°05'0 0.0
2017-Nov-13 01:30N 40°41' W 074°05'0 0.0
2017-Nov-13 01:00N 40°41' W 074°05'0 0.0
2017-Nov-13 00:30N 40°41' W 074°05'0 0.0
2017-Nov-13 00:01N 40°41' W 074°05'0 0.0
2017-Nov-12 23:31N 40°41' W 074°05'0 0.0
2017-Nov-12 23:01N 40°41' W 074°05'0 0.0
2017-Nov-12 22:31N 40°41' W 074°05'0 0.0
2017-Nov-12 22:01N 40°41' W 074°05'0 0.0
2017-Nov-12 21:31N 40°41' W 074°05'0 0.0
2017-Nov-12 21:01N 40°41' W 074°05'0 0.0
2017-Nov-12 20:29N 40°41' W 074°05'0 0.0
2017-Nov-12 20:01N 40°41' W 074°05'0 0.0
2017-Nov-12 19:30N 40°41' W 074°05'0 0.0
2017-Nov-12 19:00N 40°41' W 074°05'0 0.0
2017-Nov-12 18:30N 40°41' W 074°05'0 0.0
2017-Nov-12 18:00N 40°41' W 074°05'0 0.0
2017-Nov-12 17:30N 40°41' W 074°05'0 0.0
2017-Nov-12 17:01N 40°41' W 074°05'0 0.0
2017-Nov-12 16:30N 40°41' W 074°05'0 0.0
2017-Nov-12 16:00N 40°41' W 074°05'0 0.0
2017-Nov-12 15:31N 40°41' W 074°05'0 0.0
2017-Nov-12 15:01N 40°41' W 074°05'0 0.0
2017-Nov-12 14:31N 40°41' W 074°05'0 0.0
2017-Nov-12 14:00N 40°41' W 074°05'0 0.0
2017-Nov-12 13:31N 40°41' W 074°05'0 0.0
2017-Nov-12 13:00N 40°41' W 074°05'0 0.0
2017-Nov-12 12:30N 40°41' W 074°05'0 0.0
2017-Nov-12 12:00N 40°41' W 074°05'0 0.0
2017-Nov-12 11:31N 40°41' W 074°05'0 0.0
2017-Nov-12 11:00N 40°41' W 074°05'0 0.0
2017-Nov-12 10:30N 40°41' W 074°05'0 0.0
2017-Nov-12 10:01N 40°41' W 074°05'0 0.0
2017-Nov-12 09:31N 40°41' W 074°05'0 0.0
2017-Nov-12 09:00N 40°41' W 074°05'0 0.0
2017-Nov-12 08:30N 40°41' W 074°05'0 0.0
2017-Nov-12 08:00N 40°41' W 074°05'0 0.0
2017-Nov-12 07:30N 40°41' W 074°05'0 0.0
2017-Nov-12 07:00N 40°41' W 074°05'0 0.0
2017-Nov-12 06:30N 40°41' W 074°05'0 0.0
2017-Nov-12 06:00N 40°41' W 074°05'0 0.0
2017-Nov-12 05:30N 40°41' W 074°05'0 0.0
2017-Nov-12 05:00N 40°41' W 074°05'0 0.0
2017-Nov-12 04:30N 40°41' W 074°05'0 0.0
2017-Nov-12 04:00N 40°41' W 074°05'0 0.0
2017-Nov-12 03:30N 40°41' W 074°05'0 0.0
2017-Nov-12 03:00N 40°41' W 074°05'0 0.0
2017-Nov-12 02:31N 40°41' W 074°05'0 0.0
2017-Nov-12 02:00N 40°41' W 074°05'0 0.0
2017-Nov-12 01:31N 40°41' W 074°05'0 0.0
2017-Nov-12 01:00N 40°41' W 074°05'0 0.0
2017-Nov-12 00:30N 40°41' W 074°05'0 0.0
2017-Nov-12 00:00N 40°41' W 074°05'0 0.0
2017-Nov-11 23:30N 40°41' W 074°05'0 0.0
2017-Nov-11 23:00N 40°41' W 074°05'0 0.0
2017-Nov-11 22:30N 40°41' W 074°05'0 0.0
2017-Nov-11 22:00N 40°41' W 074°05'1 1.2
2017-Nov-11 21:31N 40°41' W 074°04'2 4.9
2017-Nov-11 21:01N 40°40' W 074°01'1 1.8
2017-Nov-11 20:31N 40°40' W 074°02'3 6.5
2017-Nov-11 20:00N 40°39' W 074°06'4 6.9
2017-Nov-11 19:30N 40°39' W 074°11'3 6.5
2017-Nov-11 19:00N 40°36' W 074°12'1 0.4
2017-Nov-11 16:14N 40°34' W 074°13'2 8.1
2017-Nov-11 16:00N 40°36' W 074°12'3 6.8
2017-Nov-11 15:30N 40°39' W 074°09'4 8.9
2017-Nov-11 15:00N 40°40' W 074°04'1 2.2
2017-Nov-11 14:31N 40°41' W 074°05'3 5.0
2017-Nov-11 14:00N 40°41' W 074°01'3 5.5
2017-Nov-11 13:30N 40°42' W 073°58'1 1.2
2017-Nov-11 13:01N 40°43' W 073°59'0 0.0
2017-Nov-11 12:31N 40°43' W 073°59'0 0.0
2017-Nov-11 12:00N 40°43' W 073°59'2 3.5
2017-Nov-11 11:31N 40°41' W 074°01'2 3.2
2017-Nov-11 11:01N 40°40' W 074°01'0 0.0
2017-Nov-11 10:30N 40°40' W 074°01'0 0.0
2017-Nov-11 10:00N 40°40' W 074°01'0 0.0
2017-Nov-11 09:31N 40°40' W 074°01'2 3.3
2017-Nov-11 09:00N 40°41' W 074°01'3 5.8
2017-Nov-11 08:31N 40°44' W 073°58'1 2.7
2017-Nov-11 08:00N 40°44' W 073°57'1 1.9
2017-Nov-11 07:30N 40°44' W 073°58'4 7.9
2017-Nov-11 07:01N 40°41' W 074°02'2 4.3
2017-Nov-11 06:31N 40°41' W 074°04'0 0.3
2017-Nov-11 06:01N 40°41' W 074°05'0 0.0
2017-Nov-11 05:30N 40°41' W 074°05'0 0.0
2017-Nov-11 05:00N 40°41' W 074°05'0 0.0
2017-Nov-11 04:30N 40°41' W 074°05'0 0.0
2017-Nov-11 04:00N 40°41' W 074°05'0 0.0
2017-Nov-11 03:30N 40°41' W 074°05'0 0.0
2017-Nov-11 03:00N 40°41' W 074°05'0 0.0
2017-Nov-11 02:30N 40°41' W 074°05'0 0.0
2017-Nov-11 02:00N 40°41' W 074°05'0 0.0
2017-Nov-11 01:30N 40°41' W 074°05'0 0.0
2017-Nov-11 01:00N 40°41' W 074°05'0 0.0
2017-Nov-11 00:30N 40°41' W 074°05'0 0.0
2017-Nov-11 00:00N 40°41' W 074°05'1 1.3
2017-Nov-10 23:30N 40°41' W 074°04'3 5.0
2017-Nov-10 23:00N 40°40' W 074°01'0 0.6
2017-Nov-10 22:30N 40°40' W 074°01'1 1.6
2017-Nov-10 22:00N 40°40' W 074°01'4 7.9
2017-Nov-10 21:30N 40°44' W 073°58'4 8.7
2017-Nov-10 21:00N 40°47' W 073°55'3 1.8
2017-Nov-10 19:34N 40°49' W 073°52'1 6.1
2017-Nov-10 19:29N 40°48' W 073°52'4 7.4
2017-Nov-10 18:56N 40°46' W 073°57'4 8.3
2017-Nov-10 18:30N 40°43' W 073°58'4 7.9
2017-Nov-10 18:00N 40°41' W 074°03'1 2.7
2017-Nov-10 17:30N 40°41' W 074°04'0 0.3
2017-Nov-10 17:00N 40°41' W 074°05'0 0.0
2017-Nov-10 16:30N 40°41' W 074°05'0 0.0
2017-Nov-10 16:00N 40°41' W 074°05'1 1.4
2017-Nov-10 15:30N 40°41' W 074°04'3 5.6
2017-Nov-10 15:00N 40°40' W 074°01'2 4.3
2017-Nov-10 14:30N 40°40' W 074°03'1 2.5
2017-Nov-10 14:00N 40°41' W 074°04'0 0.1
2017-Nov-10 13:30N 40°41' W 074°05'0 0.1
2017-Nov-10 13:00N 40°41' W 074°05'0 0.6
2017-Nov-10 12:30N 40°41' W 074°04'2 4.8
2017-Nov-10 12:00N 40°39' W 074°06'3 6.9
2017-Nov-10 11:30N 40°39' W 074°10'3 4.9
2017-Nov-10 11:00N 40°37' W 074°12'1 1.8
2017-Nov-10 10:19N 40°36' W 074°12'2 6.8
2017-Nov-10 10:00N 40°38' W 074°12'3 5.7
2017-Nov-10 09:30N 40°39' W 074°09'2 4.9
2017-Nov-10 09:00N 40°39' W 074°05'3 5.5
2017-Nov-10 08:31N 40°41' W 074°02'3 6.8
2017-Nov-10 08:00N 40°43' W 073°59'2 4.5
2017-Nov-10 07:30N 40°44' W 073°57'0 0.0
2017-Nov-10 07:00N 40°44' W 073°57'3 5.4
2017-Nov-10 06:30N 40°42' W 073°59'4 7.3
2017-Nov-10 06:00N 40°40' W 074°03'1 2.5
2017-Nov-10 05:30N 40°41' W 074°05'0 0.2
2017-Nov-10 05:00N 40°41' W 074°05'0 0.0
2017-Nov-10 04:30N 40°41' W 074°05'0 0.0
2017-Nov-10 04:00N 40°41' W 074°05'0 0.0
2017-Nov-10 03:30N 40°41' W 074°05'0 0.0
2017-Nov-10 03:01N 40°41' W 074°05'0 0.0
2017-Nov-10 02:30N 40°41' W 074°05'0 0.0
2017-Nov-10 02:00N 40°41' W 074°05'0 0.0
2017-Nov-10 01:30N 40°41' W 074°05'0 0.0
2017-Nov-10 01:00N 40°41' W 074°05'0 0.0
2017-Nov-10 00:30N 40°41' W 074°05'0 0.0
2017-Nov-10 00:00N 40°41' W 074°05'0 0.0
2017-Nov-09 23:30N 40°41' W 074°05'0 0.0
2017-Nov-09 23:00N 40°41' W 074°05'0 0.0
2017-Nov-09 22:30N 40°41' W 074°05'0 0.0
2017-Nov-09 22:00N 40°41' W 074°05'0 0.0
2017-Nov-09 21:30N 40°41' W 074°05'0 0.0
2017-Nov-09 21:00N 40°41' W 074°05'0 0.0
2017-Nov-09 20:30N 40°41' W 074°05'0 0.0
2017-Nov-09 20:00N 40°41' W 074°05'0 0.0
2017-Nov-09 19:30N 40°41' W 074°05'0 0.0
2017-Nov-09 19:00N 40°41' W 074°05'0 0.0
2017-Nov-09 18:30N 40°41' W 074°05'0 0.0
2017-Nov-09 18:01N 40°41' W 074°05'0 0.0
2017-Nov-09 17:30N 40°41' W 074°05'0 0.0
2017-Nov-09 17:00N 40°41' W 074°05'0 0.0
2017-Nov-09 16:31N 40°41' W 074°05'0 0.0
2017-Nov-09 16:00N 40°41' W 074°05'0 0.0
2017-Nov-09 15:30N 40°41' W 074°05'0 0.0
2017-Nov-09 15:00N 40°41' W 074°05'0 0.0
2017-Nov-09 14:30N 40°41' W 074°05'0 0.0
2017-Nov-09 14:01N 40°41' W 074°05'0 0.0
2017-Nov-09 13:30N 40°41' W 074°05'0 0.0
2017-Nov-09 13:00N 40°41' W 074°05'0 0.0
2017-Nov-09 12:30N 40°41' W 074°05'0 0.0
2017-Nov-09 12:00N 40°41' W 074°05'0 0.0
2017-Nov-09 11:30N 40°41' W 074°05'0 0.3
2017-Nov-09 11:00N 40°41' W 074°04'2 3.6
2017-Nov-09 10:30N 40°40' W 074°03'2 3.2
2017-Nov-09 10:00N 40°40' W 074°01'0 0.1
2017-Nov-09 09:30N 40°40' W 074°01'1 2.9
2017-Nov-09 09:00N 40°41' W 074°01'4 7.2
2017-Nov-09 08:31N 40°44' W 073°58'1 1.7
2017-Nov-09 08:00N 40°44' W 073°57'1 2.6
2017-Nov-09 07:30N 40°45' W 073°58'4 7.8
2017-Nov-09 06:59N 40°48' W 073°54'1 0.9
2017-Nov-09 05:45N 40°49' W 073°53'1 3.6
2017-Nov-09 05:29N 40°48' W 073°53'4 8.4
2017-Nov-09 05:00N 40°46' W 073°57'2 3.4
2017-Nov-09 04:30N 40°44' W 073°57'0 0.2
2017-Nov-09 04:00N 40°44' W 073°57'0 0.2
2017-Nov-09 03:30N 40°44' W 073°57'0 0.3
2017-Nov-09 03:00N 40°44' W 073°57'0 0.0
2017-Nov-09 02:30N 40°44' W 073°57'1 1.2
2017-Nov-09 02:00N 40°44' W 073°58'3 6.3
2017-Nov-09 01:30N 40°42' W 074°00'2 4.7
2017-Nov-09 01:01N 40°41' W 074°03'1 2.4
2017-Nov-09 00:30N 40°41' W 074°04'0 0.0
2017-Nov-09 00:00N 40°41' W 074°04'0 0.3
2017-Nov-08 23:30N 40°41' W 074°05'0 0.0
2017-Nov-08 23:00N 40°41' W 074°05'0 0.0
2017-Nov-08 22:30N 40°41' W 074°05'0 0.0
2017-Nov-08 22:01N 40°41' W 074°05'0 0.0
2017-Nov-08 21:31N 40°41' W 074°05'0 0.0
2017-Nov-08 21:00N 40°41' W 074°05'0 0.0
2017-Nov-08 20:30N 40°41' W 074°05'0 0.0
2017-Nov-08 20:00N 40°41' W 074°05'0 0.0
2017-Nov-08 19:30N 40°41' W 074°05'0 0.0
2017-Nov-08 19:01N 40°41' W 074°05'0 0.0
2017-Nov-08 18:30N 40°41' W 074°05'0 0.0
2017-Nov-08 18:00N 40°41' W 074°05'0 0.0
2017-Nov-08 17:30N 40°41' W 074°05'0 0.0
2017-Nov-08 17:00N 40°41' W 074°05'0 0.0
2017-Nov-08 16:30N 40°41' W 074°05'0 0.0
2017-Nov-08 16:00N 40°41' W 074°05'0 0.0
2017-Nov-08 15:30N 40°41' W 074°05'0 0.0
2017-Nov-08 15:00N 40°41' W 074°05'0 0.0
2017-Nov-08 14:30N 40°41' W 074°05'0 0.0
2017-Nov-08 14:00N 40°41' W 074°05'0 0.0
2017-Nov-08 13:30N 40°41' W 074°05'0 0.0
2017-Nov-08 13:00N 40°41' W 074°05'0 0.0
2017-Nov-08 12:30N 40°41' W 074°05'0 0.0
2017-Nov-08 12:00N 40°41' W 074°05'0 0.0
2017-Nov-08 11:30N 40°41' W 074°05'0 0.0
2017-Nov-08 11:00N 40°41' W 074°05'0 0.0
2017-Nov-08 10:30N 40°41' W 074°05'0 0.0
2017-Nov-08 10:00N 40°41' W 074°05'0 0.0
2017-Nov-08 09:30N 40°41' W 074°05'0 0.0
2017-Nov-08 09:00N 40°41' W 074°05'0 0.0
2017-Nov-08 08:30N 40°41' W 074°05'0 0.0
2017-Nov-08 08:00N 40°41' W 074°05'0 0.3
2017-Nov-08 07:30N 40°41' W 074°04'2 4.0
2017-Nov-08 07:00N 40°40' W 074°03'2 3.1
2017-Nov-08 06:30N 40°40' W 074°01'0 0.1
2017-Nov-08 06:00N 40°40' W 074°01'1 2.0
2017-Nov-08 05:30N 40°40' W 074°02'3 5.0
2017-Nov-08 05:00N 40°41' W 074°05'0 0.1
2017-Nov-08 04:30N 40°41' W 074°04'1 1.8
2017-Nov-08 04:00N 40°40' W 074°04'4 7.7
2017-Nov-08 03:30N 40°39' W 074°08'4 7.0
2017-Nov-08 03:00N 40°37' W 074°12'  
Track history (hours):
 
Tides and Currents Weather Stations Pressure Air Temp Water Temp Dewpoint Dewpoint Depression Visibility Wind Speed Wind Dir Waves Ship Positions

MV Sea Wolf

Owner: SEA WOLF MARINE TOWING & TRANSPORTATION, Bayonne, NJ. More information available from US FCC via Universal Licensing System and Coast Guard Vessel Documentation Center.

Last reported at 2017-Nov-18 02:30 UTC. Time now 2017-Nov-18 02:56 UTC.
Position N 40°41' W 074°05'.

Length 66 m; draft 10 m.

MMSI: 367002350.

Date/timePositionNaut miles runAvg speedWind from/ knotsBaromVisibWave heightAir tempDewpointWater temp
2017-Nov-18 02:30N 40°41' W 074°05'0 0.0
2017-Nov-18 02:00N 40°41' W 074°05'0 0.0
2017-Nov-18 01:30N 40°41' W 074°05'0 0.0
2017-Nov-18 01:00N 40°41' W 074°05'0 0.0
2017-Nov-18 00:30N 40°41' W 074°05'0 0.0
2017-Nov-18 00:00N 40°41' W 074°05'0 0.0
2017-Nov-17 23:30N 40°41' W 074°05'0 0.0
2017-Nov-17 23:00N 40°41' W 074°05'0 0.0
2017-Nov-17 22:30N 40°41' W 074°05'0 0.0
2017-Nov-17 22:00N 40°41' W 074°05'0 0.0
2017-Nov-17 21:30N 40°41' W 074°05'0 0.0
2017-Nov-17 21:00N 40°41' W 074°05'0 0.0
2017-Nov-17 20:30N 40°41' W 074°05'0 0.0
2017-Nov-17 20:00N 40°41' W 074°05'0 0.0
2017-Nov-17 19:30N 40°41' W 074°05'0 0.0
2017-Nov-17 19:00N 40°41' W 074°05'2 3.3
2017-Nov-17 18:31N 40°40' W 074°04'4 7.6
2017-Nov-17 18:00N 40°38' W 074°09'0 0.0
2017-Nov-17 17:30N 40°38' W 074°09'0 0.2
2017-Nov-17 17:00N 40°38' W 074°09'0 0.1
2017-Nov-17 16:30N 40°38' W 074°09'0 0.1
2017-Nov-17 16:00N 40°38' W 074°09'0 0.1
2017-Nov-17 15:30N 40°38' W 074°09'0 0.0
2017-Nov-17 15:00N 40°38' W 074°09'0 0.0
2017-Nov-17 14:29N 40°38' W 074°09'0 0.2
2017-Nov-17 14:00N 40°38' W 074°09'0 0.1
2017-Nov-17 13:30N 40°38' W 074°09'0 0.0
2017-Nov-17 13:00N 40°38' W 074°09'0 0.0
2017-Nov-17 12:30N 40°38' W 074°09'3 5.1
2017-Nov-17 12:00N 40°39' W 074°06'2 5.0
2017-Nov-17 11:30N 40°41' W 074°05'0 0.0
2017-Nov-17 11:00N 40°41' W 074°05'0 0.0
2017-Nov-17 10:30N 40°41' W 074°05'0 0.0
2017-Nov-17 10:00N 40°41' W 074°05'0 0.0
2017-Nov-17 09:30N 40°41' W 074°05'0 0.0
2017-Nov-17 09:00N 40°41' W 074°05'0 0.0
2017-Nov-17 08:30N 40°41' W 074°05'0 0.0
2017-Nov-17 08:00N 40°41' W 074°05'0 0.0
2017-Nov-17 07:30N 40°41' W 074°05'0 0.0
2017-Nov-17 07:00N 40°41' W 074°05'0 0.0
2017-Nov-17 06:30N 40°41' W 074°05'0 0.0
2017-Nov-17 06:00N 40°41' W 074°05'0 0.0
2017-Nov-17 05:30N 40°41' W 074°05'0 0.0
2017-Nov-17 05:00N 40°41' W 074°05'0 0.0
2017-Nov-17 04:30N 40°41' W 074°05'0 0.0
2017-Nov-17 04:00N 40°41' W 074°05'0 0.0
2017-Nov-17 03:30N 40°41' W 074°05'0 0.0
2017-Nov-17 03:00N 40°41' W 074°05'0 0.0
2017-Nov-17 02:31N 40°41' W 074°05'0 0.0
2017-Nov-17 02:00N 40°41' W 074°05'0 0.0
2017-Nov-17 01:30N 40°41' W 074°05'0 0.0
2017-Nov-17 01:00N 40°41' W 074°05'0 0.0
2017-Nov-17 00:30N 40°41' W 074°05'0 0.0
2017-Nov-17 00:00N 40°41' W 074°05'0 0.0
2017-Nov-16 23:30N 40°41' W 074°05'0 0.0
2017-Nov-16 23:00N 40°41' W 074°05'0 0.0
2017-Nov-16 22:30N 40°41' W 074°05'0 0.0
2017-Nov-16 22:00N 40°41' W 074°05'0 0.0
2017-Nov-16 21:30N 40°41' W 074°05'2 3.3
2017-Nov-16 21:00N 40°41' W 074°03'2 3.7
2017-Nov-16 20:30N 40°40' W 074°01'2 3.1
2017-Nov-16 20:00N 40°41' W 074°01'3 6.1
2017-Nov-16 19:30N 40°44' W 073°58'1 2.4
2017-Nov-16 19:00N 40°44' W 073°57'1 1.8
2017-Nov-16 18:30N 40°44' W 073°58'2 3.9
2017-Nov-16 18:00N 40°42' W 073°59'2 4.5
2017-Nov-16 17:30N 40°41' W 074°02'2 4.0
2017-Nov-16 17:00N 40°41' W 074°04'0 0.3
2017-Nov-16 16:31N 40°41' W 074°05'0 0.0
2017-Nov-16 16:00N 40°41' W 074°05'0 0.0
2017-Nov-16 15:30N 40°41' W 074°05'0 0.0
2017-Nov-16 15:00N 40°41' W 074°05'0 0.0
2017-Nov-16 14:30N 40°41' W 074°05'0 0.0
2017-Nov-16 14:00N 40°41' W 074°05'0 0.0
2017-Nov-16 13:30N 40°41' W 074°05'0 0.0
2017-Nov-16 13:00N 40°41' W 074°05'0 0.3
2017-Nov-16 12:30N 40°41' W 074°04'0 0.3
2017-Nov-16 12:00N 40°41' W 074°05'0 0.0
2017-Nov-16 11:30N 40°41' W 074°05'0 0.0
2017-Nov-16 11:00N 40°41' W 074°05'0 0.0
2017-Nov-16 10:31N 40°41' W 074°05'0 0.0
2017-Nov-16 10:00N 40°41' W 074°05'0 0.0
2017-Nov-16 09:31N 40°41' W 074°05'0 0.0
2017-Nov-16 09:00N 40°41' W 074°05'0 0.0
2017-Nov-16 08:30N 40°41' W 074°05'0 0.0
2017-Nov-16 08:00N 40°41' W 074°05'0 0.0
2017-Nov-16 07:30N 40°41' W 074°05'0 0.0
2017-Nov-16 07:00N 40°41' W 074°05'0 0.0
2017-Nov-16 06:31N 40°41' W 074°05'0 0.0
2017-Nov-16 06:00N 40°41' W 074°05'0 0.0
2017-Nov-16 05:30N 40°41' W 074°05'0 0.0
2017-Nov-16 05:00N 40°41' W 074°05'0 0.0
2017-Nov-16 04:31N 40°41' W 074°05'0 0.0
2017-Nov-16 04:00N 40°41' W 074°05'1 2.6
2017-Nov-16 03:30N 40°40' W 074°04'4 7.3
2017-Nov-16 03:00N 40°39' W 074°08'3 6.0
2017-Nov-16 02:30N 40°38' W 074°12'2 3.8
2017-Nov-16 01:55N 40°35' W 074°12'2 4.4
2017-Nov-16 01:30N 40°37' W 074°12'3 5.3
2017-Nov-16 01:00N 40°39' W 074°09'3 5.7
2017-Nov-16 00:31N 40°39' W 074°06'2 4.7
2017-Nov-16 00:01N 40°41' W 074°04'0 0.5
2017-Nov-15 23:30N 40°41' W 074°05'0 0.0
2017-Nov-15 23:00N 40°41' W 074°05'0 0.0
2017-Nov-15 22:30N 40°41' W 074°05'0 0.0
2017-Nov-15 22:00N 40°41' W 074°05'0 0.0
2017-Nov-15 21:30N 40°41' W 074°05'0 0.0
2017-Nov-15 21:00N 40°41' W 074°05'0 0.0
2017-Nov-15 20:30N 40°41' W 074°05'0 0.0
2017-Nov-15 20:01N 40°41' W 074°05'0 0.0
2017-Nov-15 19:30N 40°41' W 074°05'0 0.0
2017-Nov-15 19:00N 40°41' W 074°05'0 0.0
2017-Nov-15 18:30N 40°41' W 074°05'0 0.0
2017-Nov-15 18:01N 40°41' W 074°05'0 0.0
2017-Nov-15 17:30N 40°41' W 074°05'0 0.0
2017-Nov-15 17:01N 40°41' W 074°05'0 0.0
2017-Nov-15 16:30N 40°41' W 074°05'0 0.0
2017-Nov-15 16:00N 40°41' W 074°05'0 0.0
2017-Nov-15 15:30N 40°41' W 074°05'0 0.0
2017-Nov-15 15:00N 40°41' W 074°05'0 0.0
2017-Nov-15 14:31N 40°41' W 074°05'0 0.0
2017-Nov-15 14:00N 40°41' W 074°05'0 0.0
2017-Nov-15 13:30N 40°41' W 074°05'0 0.0
2017-Nov-15 13:00N 40°41' W 074°05'0 0.0
2017-Nov-15 12:30N 40°41' W 074°05'0 0.0
2017-Nov-15 12:00N 40°41' W 074°05'0 0.0
2017-Nov-15 11:30N 40°41' W 074°05'0 0.0
2017-Nov-15 11:00N 40°41' W 074°05'0 0.0
2017-Nov-15 10:30N 40°41' W 074°05'0 0.0
2017-Nov-15 10:00N 40°41' W 074°05'0 0.0
2017-Nov-15 09:30N 40°41' W 074°05'0 0.0
2017-Nov-15 09:00N 40°41' W 074°05'0 0.0
2017-Nov-15 08:30N 40°41' W 074°05'0 0.0
2017-Nov-15 08:00N 40°41' W 074°05'0 0.0
2017-Nov-15 07:30N 40°41' W 074°05'0 0.0
2017-Nov-15 07:00N 40°41' W 074°05'0 0.0
2017-Nov-15 06:30N 40°41' W 074°05'0 0.0
2017-Nov-15 06:00N 40°41' W 074°05'0 0.0
2017-Nov-15 05:30N 40°41' W 074°05'0 0.0
2017-Nov-15 05:00N 40°41' W 074°05'0 0.0
2017-Nov-15 04:30N 40°41' W 074°05'0 0.0
2017-Nov-15 04:00N 40°41' W 074°05'0 0.0
2017-Nov-15 03:30N 40°41' W 074°05'0 0.0
2017-Nov-15 03:00N 40°41' W 074°05'0 0.0
2017-Nov-15 02:30N 40°41' W 074°05'0 0.0
2017-Nov-15 02:00N 40°41' W 074°05'0 0.0
2017-Nov-15 01:30N 40°41' W 074°05'0 0.0
2017-Nov-15 00:59N 40°41' W 074°05'0 0.0
2017-Nov-15 00:30N 40°41' W 074°05'0 0.0
2017-Nov-15 00:00N 40°41' W 074°05'0 0.0
2017-Nov-14 23:30N 40°41' W 074°05'0 0.0
2017-Nov-14 23:00N 40°41' W 074°05'0 0.0
2017-Nov-14 22:30N 40°41' W 074°05'0 0.0
2017-Nov-14 22:00N 40°41' W 074°05'0 0.0
2017-Nov-14 21:30N 40°41' W 074°05'0 0.0
2017-Nov-14 21:00N 40°41' W 074°05'0 0.0
2017-Nov-14 20:30N 40°41' W 074°05'0 0.0
2017-Nov-14 20:00N 40°41' W 074°05'0 0.0
2017-Nov-14 19:30N 40°41' W 074°05'0 0.0
2017-Nov-14 19:00N 40°41' W 074°05'0 0.0
2017-Nov-14 18:30N 40°41' W 074°05'0 0.0
2017-Nov-14 18:00N 40°41' W 074°05'0 0.0
2017-Nov-14 17:30N 40°41' W 074°05'0 0.0
2017-Nov-14 17:00N 40°41' W 074°05'0 0.0
2017-Nov-14 16:30N 40°41' W 074°05'0 0.0
2017-Nov-14 16:00N 40°41' W 074°05'0 0.0
2017-Nov-14 15:30N 40°41' W 074°05'0 0.0
2017-Nov-14 15:00N 40°41' W 074°05'0 0.0
2017-Nov-14 14:30N 40°41' W 074°05'0 0.0
2017-Nov-14 14:00N 40°41' W 074°05'0 0.0
2017-Nov-14 13:30N 40°41' W 074°05'0 0.0
2017-Nov-14 13:00N 40°41' W 074°05'0 0.0
2017-Nov-14 12:30N 40°41' W 074°05'0 0.0
2017-Nov-14 12:01N 40°41' W 074°05'0 0.0
2017-Nov-14 11:30N 40°41' W 074°05'0 0.0
2017-Nov-14 11:00N 40°41' W 074°05'0 0.0
2017-Nov-14 10:30N 40°41' W 074°05'0 0.0
2017-Nov-14 10:00N 40°41' W 074°05'0 0.0
2017-Nov-14 09:30N 40°41' W 074°05'0 0.0
2017-Nov-14 09:00N 40°41' W 074°05'0 0.0
2017-Nov-14 08:30N 40°41' W 074°05'0 0.0
2017-Nov-14 08:00N 40°41' W 074°05'0 0.0
2017-Nov-14 07:30N 40°41' W 074°05'0 0.0
2017-Nov-14 07:00N 40°41' W 074°05'0 0.0
2017-Nov-14 06:30N 40°41' W 074°05'0 0.0
2017-Nov-14 06:00N 40°41' W 074°05'0 0.0
2017-Nov-14 05:30N 40°41' W 074°05'0 0.0
2017-Nov-14 05:00N 40°41' W 074°05'0 0.0
2017-Nov-14 04:30N 40°41' W 074°05'0 0.0
2017-Nov-14 04:00N 40°41' W 074°05'0 0.0
2017-Nov-14 03:30N 40°41' W 074°05'0 0.0
2017-Nov-14 03:00N 40°41' W 074°05'0 0.0
2017-Nov-14 02:30N 40°41' W 074°05'0 0.0
2017-Nov-14 02:00N 40°41' W 074°05'0 0.0
2017-Nov-14 01:30N 40°41' W 074°05'0 0.0
2017-Nov-14 01:00N 40°41' W 074°05'0 0.0
2017-Nov-14 00:30N 40°41' W 074°05'0 0.0
2017-Nov-14 00:00N 40°41' W 074°05'0 0.0
2017-Nov-13 23:30N 40°41' W 074°05'0 0.0
2017-Nov-13 23:00N 40°41' W 074°05'0 0.0
2017-Nov-13 22:30N 40°41' W 074°05'0 0.0
2017-Nov-13 22:00N 40°41' W 074°05'0 0.0
2017-Nov-13 02:01N 40°41' W 074°05'0 0.0
2017-Nov-13 01:30N 40°41' W 074°05'0 0.0
2017-Nov-13 01:00N 40°41' W 074°05'0 0.0
2017-Nov-13 00:30N 40°41' W 074°05'0 0.0
2017-Nov-13 00:01N 40°41' W 074°05'0 0.0
2017-Nov-12 23:31N 40°41' W 074°05'0 0.0
2017-Nov-12 23:01N 40°41' W 074°05'0 0.0
2017-Nov-12 22:31N 40°41' W 074°05'0 0.0
2017-Nov-12 22:01N 40°41' W 074°05'0 0.0
2017-Nov-12 21:31N 40°41' W 074°05'0 0.0
2017-Nov-12 21:01N 40°41' W 074°05'0 0.0
2017-Nov-12 20:29N 40°41' W 074°05'0 0.0
2017-Nov-12 20:01N 40°41' W 074°05'0 0.0
2017-Nov-12 19:30N 40°41' W 074°05'0 0.0
2017-Nov-12 19:00N 40°41' W 074°05'0 0.0
2017-Nov-12 18:30N 40°41' W 074°05'0 0.0
2017-Nov-12 18:00N 40°41' W 074°05'0 0.0
2017-Nov-12 17:30N 40°41' W 074°05'0 0.0
2017-Nov-12 17:01N 40°41' W 074°05'0 0.0
2017-Nov-12 16:30N 40°41' W 074°05'0 0.0
2017-Nov-12 16:00N 40°41' W 074°05'0 0.0
2017-Nov-12 15:31N 40°41' W 074°05'0 0.0
2017-Nov-12 15:01N 40°41' W 074°05'0 0.0
2017-Nov-12 14:31N 40°41' W 074°05'0 0.0
2017-Nov-12 14:00N 40°41' W 074°05'0 0.0
2017-Nov-12 13:31N 40°41' W 074°05'0 0.0
2017-Nov-12 13:00N 40°41' W 074°05'0 0.0
2017-Nov-12 12:30N 40°41' W 074°05'0 0.0
2017-Nov-12 12:00N 40°41' W 074°05'0 0.0
2017-Nov-12 11:31N 40°41' W 074°05'0 0.0
2017-Nov-12 11:00N 40°41' W 074°05'0 0.0
2017-Nov-12 10:30N 40°41' W 074°05'0 0.0
2017-Nov-12 10:01N 40°41' W 074°05'0 0.0
2017-Nov-12 09:31N 40°41' W 074°05'0 0.0
2017-Nov-12 09:00N 40°41' W 074°05'0 0.0
2017-Nov-12 08:30N 40°41' W 074°05'0 0.0
2017-Nov-12 08:00N 40°41' W 074°05'0 0.0
2017-Nov-12 07:30N 40°41' W 074°05'0 0.0
2017-Nov-12 07:00N 40°41' W 074°05'0 0.0
2017-Nov-12 06:30N 40°41' W 074°05'0 0.0
2017-Nov-12 06:00N 40°41' W 074°05'0 0.0
2017-Nov-12 05:30N 40°41' W 074°05'0 0.0
2017-Nov-12 05:00N 40°41' W 074°05'0 0.0
2017-Nov-12 04:30N 40°41' W 074°05'0 0.0
2017-Nov-12 04:00N 40°41' W 074°05'0 0.0
2017-Nov-12 03:30N 40°41' W 074°05'0 0.0
2017-Nov-12 03:00N 40°41' W 074°05'0 0.0
2017-Nov-12 02:31N 40°41' W 074°05'0 0.0
2017-Nov-12 02:00N 40°41' W 074°05'0 0.0
2017-Nov-12 01:31N 40°41' W 074°05'0 0.0
2017-Nov-12 01:00N 40°41' W 074°05'0 0.0
2017-Nov-12 00:30N 40°41' W 074°05'0 0.0
2017-Nov-12 00:00N 40°41' W 074°05'0 0.0
2017-Nov-11 23:30N 40°41' W 074°05'0 0.0
2017-Nov-11 23:00N 40°41' W 074°05'0 0.0
2017-Nov-11 22:30N 40°41' W 074°05'0 0.0
2017-Nov-11 22:00N 40°41' W 074°05'1 1.2
2017-Nov-11 21:31N 40°41' W 074°04'2 4.9
2017-Nov-11 21:01N 40°40' W 074°01'1 1.8
2017-Nov-11 20:31N 40°40' W 074°02'3 6.5
2017-Nov-11 20:00N 40°39' W 074°06'4 6.9
2017-Nov-11 19:30N 40°39' W 074°11'3 6.5
2017-Nov-11 19:00N 40°36' W 074°12'1 0.4
2017-Nov-11 16:14N 40°34' W 074°13'2 8.1
2017-Nov-11 16:00N 40°36' W 074°12'3 6.8
2017-Nov-11 15:30N 40°39' W 074°09'4 8.9
2017-Nov-11 15:00N 40°40' W 074°04'1 2.2
2017-Nov-11 14:31N 40°41' W 074°05'3 5.0
2017-Nov-11 14:00N 40°41' W 074°01'3 5.5
2017-Nov-11 13:30N 40°42' W 073°58'1 1.2
2017-Nov-11 13:01N 40°43' W 073°59'0 0.0
2017-Nov-11 12:31N 40°43' W 073°59'0 0.0
2017-Nov-11 12:00N 40°43' W 073°59'2 3.5
2017-Nov-11 11:31N 40°41' W 074°01'2 3.2
2017-Nov-11 11:01N 40°40' W 074°01'0 0.0
2017-Nov-11 10:30N 40°40' W 074°01'0 0.0
2017-Nov-11 10:00N 40°40' W 074°01'0 0.0
2017-Nov-11 09:31N 40°40' W 074°01'2 3.3
2017-Nov-11 09:00N 40°41' W 074°01'3 5.8
2017-Nov-11 08:31N 40°44' W 073°58'1 2.7
2017-Nov-11 08:00N 40°44' W 073°57'1 1.9
2017-Nov-11 07:30N 40°44' W 073°58'4 7.9
2017-Nov-11 07:01N 40°41' W 074°02'2 4.3
2017-Nov-11 06:31N 40°41' W 074°04'0 0.3
2017-Nov-11 06:01N 40°41' W 074°05'0 0.0
2017-Nov-11 05:30N 40°41' W 074°05'0 0.0
2017-Nov-11 05:00N 40°41' W 074°05'0 0.0
2017-Nov-11 04:30N 40°41' W 074°05'0 0.0
2017-Nov-11 04:00N 40°41' W 074°05'0 0.0
2017-Nov-11 03:30N 40°41' W 074°05'0 0.0
2017-Nov-11 03:00N 40°41' W 074°05'0 0.0
2017-Nov-11 02:30N 40°41' W 074°05'0 0.0
2017-Nov-11 02:00N 40°41' W 074°05'0 0.0
2017-Nov-11 01:30N 40°41' W 074°05'0 0.0
2017-Nov-11 01:00N 40°41' W 074°05'0 0.0
2017-Nov-11 00:30N 40°41' W 074°05'0 0.0
2017-Nov-11 00:00N 40°41' W 074°05'1 1.3
2017-Nov-10 23:30N 40°41' W 074°04'3 5.0
2017-Nov-10 23:00N 40°40' W 074°01'0 0.6
2017-Nov-10 22:30N 40°40' W 074°01'1 1.6
2017-Nov-10 22:00N 40°40' W 074°01'4 7.9
2017-Nov-10 21:30N 40°44' W 073°58'4 8.7
2017-Nov-10 21:00N 40°47' W 073°55'3 1.8
2017-Nov-10 19:34N 40°49' W 073°52'1 6.1
2017-Nov-10 19:29N 40°48' W 073°52'4 7.4
2017-Nov-10 18:56N 40°46' W 073°57'4 8.3
2017-Nov-10 18:30N 40°43' W 073°58'4 7.9
2017-Nov-10 18:00N 40°41' W 074°03'1 2.7
2017-Nov-10 17:30N 40°41' W 074°04'0 0.3
2017-Nov-10 17:00N 40°41' W 074°05'0 0.0
2017-Nov-10 16:30N 40°41' W 074°05'0 0.0
2017-Nov-10 16:00N 40°41' W 074°05'1 1.4
2017-Nov-10 15:30N 40°41' W 074°04'3 5.6
2017-Nov-10 15:00N 40°40' W 074°01'2 4.3
2017-Nov-10 14:30N 40°40' W 074°03'1 2.5
2017-Nov-10 14:00N 40°41' W 074°04'0 0.1
2017-Nov-10 13:30N 40°41' W 074°05'0 0.1
2017-Nov-10 13:00N 40°41' W 074°05'0 0.6
2017-Nov-10 12:30N 40°41' W 074°04'2 4.8
2017-Nov-10 12:00N 40°39' W 074°06'3 6.9
2017-Nov-10 11:30N 40°39' W 074°10'3 4.9
2017-Nov-10 11:00N 40°37' W 074°12'1 1.8
2017-Nov-10 10:19N 40°36' W 074°12'2 6.8
2017-Nov-10 10:00N 40°38' W 074°12'3 5.7
2017-Nov-10 09:30N 40°39' W 074°09'2 4.9
2017-Nov-10 09:00N 40°39' W 074°05'3 5.5
2017-Nov-10 08:31N 40°41' W 074°02'3 6.8
2017-Nov-10 08:00N 40°43' W 073°59'2 4.5
2017-Nov-10 07:30N 40°44' W 073°57'0 0.0
2017-Nov-10 07:00N 40°44' W 073°57'3 5.4
2017-Nov-10 06:30N 40°42' W 073°59'4 7.3
2017-Nov-10 06:00N 40°40' W 074°03'1 2.5
2017-Nov-10 05:30N 40°41' W 074°05'0 0.2
2017-Nov-10 05:00N 40°41' W 074°05'0 0.0
2017-Nov-10 04:30N 40°41' W 074°05'0 0.0
2017-Nov-10 04:00N 40°41' W 074°05'0 0.0
2017-Nov-10 03:30N 40°41' W 074°05'0 0.0
2017-Nov-10 03:01N 40°41' W 074°05'0 0.0
2017-Nov-10 02:30N 40°41' W 074°05'0 0.0
2017-Nov-10 02:00N 40°41' W 074°05'0 0.0
2017-Nov-10 01:30N 40°41' W 074°05'0 0.0
2017-Nov-10 01:00N 40°41' W 074°05'0 0.0
2017-Nov-10 00:30N 40°41' W 074°05'0 0.0
2017-Nov-10 00:00N 40°41' W 074°05'0 0.0
2017-Nov-09 23:30N 40°41' W 074°05'0 0.0
2017-Nov-09 23:00N 40°41' W 074°05'0 0.0
2017-Nov-09 22:30N 40°41' W 074°05'0 0.0
2017-Nov-09 22:00N 40°41' W 074°05'0 0.0
2017-Nov-09 21:30N 40°41' W 074°05'0 0.0
2017-Nov-09 21:00N 40°41' W 074°05'0 0.0
2017-Nov-09 20:30N 40°41' W 074°05'0 0.0
2017-Nov-09 20:00N 40°41' W 074°05'0 0.0
2017-Nov-09 19:30N 40°41' W 074°05'0 0.0
2017-Nov-09 19:00N 40°41' W 074°05'0 0.0
2017-Nov-09 18:30N 40°41' W 074°05'0 0.0
2017-Nov-09 18:01N 40°41' W 074°05'0 0.0
2017-Nov-09 17:30N 40°41' W 074°05'0 0.0
2017-Nov-09 17:00N 40°41' W 074°05'0 0.0
2017-Nov-09 16:31N 40°41' W 074°05'0 0.0
2017-Nov-09 16:00N 40°41' W 074°05'0 0.0
2017-Nov-09 15:30N 40°41' W 074°05'0 0.0
2017-Nov-09 15:00N 40°41' W 074°05'0 0.0
2017-Nov-09 14:30N 40°41' W 074°05'0 0.0
2017-Nov-09 14:01N 40°41' W 074°05'0 0.0
2017-Nov-09 13:30N 40°41' W 074°05'0 0.0
2017-Nov-09 13:00N 40°41' W 074°05'0 0.0
2017-Nov-09 12:30N 40°41' W 074°05'0 0.0
2017-Nov-09 12:00N 40°41' W 074°05'0 0.0
2017-Nov-09 11:30N 40°41' W 074°05'0 0.3
2017-Nov-09 11:00N 40°41' W 074°04'2 3.6
2017-Nov-09 10:30N 40°40' W 074°03'2 3.2
2017-Nov-09 10:00N 40°40' W 074°01'0 0.1
2017-Nov-09 09:30N 40°40' W 074°01'1 2.9
2017-Nov-09 09:00N 40°41' W 074°01'4 7.2
2017-Nov-09 08:31N 40°44' W 073°58'1 1.7
2017-Nov-09 08:00N 40°44' W 073°57'1 2.6
2017-Nov-09 07:30N 40°45' W 073°58'4 7.8
2017-Nov-09 06:59N 40°48' W 073°54'1 0.9
2017-Nov-09 05:45N 40°49' W 073°53'1 3.6
2017-Nov-09 05:29N 40°48' W 073°53'4 8.4
2017-Nov-09 05:00N 40°46' W 073°57'2 3.4
2017-Nov-09 04:30N 40°44' W 073°57'0 0.2
2017-Nov-09 04:00N 40°44' W 073°57'0 0.2
2017-Nov-09 03:30N 40°44' W 073°57'0 0.3
2017-Nov-09 03:00N 40°44' W 073°57'0 0.0
2017-Nov-09 02:30N 40°44' W 073°57'1 1.2
2017-Nov-09 02:00N 40°44' W 073°58'3 6.3
2017-Nov-09 01:30N 40°42' W 074°00'2 4.7
2017-Nov-09 01:01N 40°41' W 074°03'1 2.4
2017-Nov-09 00:30N 40°41' W 074°04'0 0.0
2017-Nov-09 00:00N 40°41' W 074°04'0 0.3
2017-Nov-08 23:30N 40°41' W 074°05'0 0.0
2017-Nov-08 23:00N 40°41' W 074°05'0 0.0
2017-Nov-08 22:30N 40°41' W 074°05'0 0.0
2017-Nov-08 22:01N 40°41' W 074°05'0 0.0
2017-Nov-08 21:31N 40°41' W 074°05'0 0.0
2017-Nov-08 21:00N 40°41' W 074°05'0 0.0
2017-Nov-08 20:30N 40°41' W 074°05'0 0.0
2017-Nov-08 20:00N 40°41' W 074°05'0 0.0
2017-Nov-08 19:30N 40°41' W 074°05'0 0.0
2017-Nov-08 19:01N 40°41' W 074°05'0 0.0
2017-Nov-08 18:30N 40°41' W 074°05'0 0.0
2017-Nov-08 18:00N 40°41' W 074°05'0 0.0
2017-Nov-08 17:30N 40°41' W 074°05'0 0.0
2017-Nov-08 17:00N 40°41' W 074°05'0 0.0
2017-Nov-08 16:30N 40°41' W 074°05'0 0.0
2017-Nov-08 16:00N 40°41' W 074°05'0 0.0
2017-Nov-08 15:30N 40°41' W 074°05'0 0.0
2017-Nov-08 15:00N 40°41' W 074°05'0 0.0
2017-Nov-08 14:30N 40°41' W 074°05'0 0.0
2017-Nov-08 14:00N 40°41' W 074°05'0 0.0
2017-Nov-08 13:30N 40°41' W 074°05'0 0.0
2017-Nov-08 13:00N 40°41' W 074°05'0 0.0
2017-Nov-08 12:30N 40°41' W 074°05'0 0.0
2017-Nov-08 12:00N 40°41' W 074°05'0 0.0
2017-Nov-08 11:30N 40°41' W 074°05'0 0.0
2017-Nov-08 11:00N 40°41' W 074°05'0 0.0
2017-Nov-08 10:30N 40°41' W 074°05'0 0.0
2017-Nov-08 10:00N 40°41' W 074°05'0 0.0
2017-Nov-08 09:30N 40°41' W 074°05'0 0.0
2017-Nov-08 09:00N 40°41' W 074°05'0 0.0
2017-Nov-08 08:30N 40°41' W 074°05'0 0.0
2017-Nov-08 08:00N 40°41' W 074°05'0 0.3
2017-Nov-08 07:30N 40°41' W 074°04'2 4.0
2017-Nov-08 07:00N 40°40' W 074°03'2 3.1
2017-Nov-08 06:30N 40°40' W 074°01'0 0.1
2017-Nov-08 06:00N 40°40' W 074°01'1 2.0
2017-Nov-08 05:30N 40°40' W 074°02'3 5.0
2017-Nov-08 05:00N 40°41' W 074°05'0 0.1
2017-Nov-08 04:30N 40°41' W 074°04'1 1.8
2017-Nov-08 04:00N 40°40' W 074°04'4 7.7
2017-Nov-08 03:30N 40°39' W 074°08'4 7.0
2017-Nov-08 03:00N 40°37' W 074°12'  

Dump ship's entire track history